Flong, Denmark
Current Conditions -  °F | °C
As of 2:50 AM on Sunday 21 Dec 2014 (Local Time) from EKRK Reporting Station
Clear Clear  
Wind Chill: 27°   Ceiling: Unl
Heat Index: 37°   Visibility: 6mi
Dew Point: 32°   Wind: 18mph
Humidity: 81%   Direction: 290°WNW
Pressure: 29.88"   Gusts: NA
Location:  55.66°N, 12.19°E
Report Text: EKRK 210150Z AUTO 29016KT 9999NDV NCD 03/00 Q1012
Loading
Personal Weather Stations






























Interactive Weather Map New forecast layout! Learn more

10-Day Weather Forecast

Advertisements
Track Severe Weather on mobile